Tanja Jacob — A8YR7 — position and weather

sailwx.info

Track history (hours):
 
Tides and Currents Weather Stations Pressure Air Temp Water Temp Dewpoint Dewpoint Depression Visibility Wind Speed Wind Dir Waves Ship Positions

Tanja Jacob

Last reported at 2016-Feb-10 08:33 UTC. Time now 2016-Feb-11 06:29 UTC.
Position N 36°14' W 008°03'.

Length 227 m; draft 8.4 m.

Type: Ship. MMSI: 636092217.

Date/timePositionNaut miles runAvg speedWind from/ knotsBaromVisibWave heightAir tempDewpointWater temp
2016-Feb-10 08:33N 36°14' W 008°03'1414.5
2016-Feb-10 07:33N 36°18' W 008°21'1414.2
2016-Feb-10 06:33N 36°22' W 008°38'1414.1
2016-Feb-10 05:33N 36°25' W 008°55'1414.4
2016-Feb-10 04:33N 36°29' W 009°12'1613.5
2016-Feb-10 03:21N 36°38' W 009°29'1113.3
2016-Feb-10 02:30N 36°46' W 009°38'1313.3
2016-Feb-10 01:33N 36°59' W 009°42'1414.4
2016-Feb-10 00:33N 37°13' W 009°46'1514.6
2016-Feb-09 23:33N 37°27' W 009°50'1414.3
2016-Feb-09 22:33N 37°41' W 009°54'1913.7
2016-Feb-09 21:11N 37°59' W 009°59'913.3
2016-Feb-09 20:32N 38°07' W 010°02'1514.7
2016-Feb-09 19:32N 38°22' W 010°06'1714.9
2016-Feb-09 18:23N 38°38' W 010°11'1012.2
2016-Feb-09 17:33N 38°48' W 010°12'1413.6
2016-Feb-09 16:33N 39°02' W 010°11'2013.9
2016-Feb-09 15:05N 39°22' W 010°12'815.0
2016-Feb-09 14:32N 39°31' W 010°12'1312.5
2016-Feb-09 13:32N 39°43' W 010°12'1414.1
2016-Feb-09 12:32N 39°57' W 010°12'1413.6
2016-Feb-09 11:32N 40°11' W 010°12'1212.5
2016-Feb-09 10:33N 40°23' W 010°12'1413.0
2016-Feb-09 09:30N 40°37' W 010°12'1212.9
2016-Feb-09 08:33N 40°49' W 010°12'1313.0
2016-Feb-09 07:32N 41°02' W 010°12'1111.1
2016-Feb-09 06:32N 41°13' W 010°12'1212.3
2016-Feb-09 05:32N 41°26' W 010°11'1110.8
2016-Feb-09 04:32N 41°36' W 010°12'1211.7
2016-Feb-09 03:33N 41°48' W 010°12'1211.6
2016-Feb-09 02:33N 41°60' W 010°12'  
2016-Feb-05 19:31N 50°25' W 000°41'1111.6
2016-Feb-05 18:33N 50°28' W 000°24'1211.8
2016-Feb-05 17:33N 50°31' W 000°06'1312.3
2016-Feb-05 16:31N 50°34' E 000°13'3013.0
2016-Feb-05 14:15N 50°47' E 000°55'913.2
2016-Feb-05 13:33N 50°52' E 001°07'1312.9
2016-Feb-05 12:33N 51°01' E 001°22'1211.5
2016-Feb-05 11:33N 51°08' E 001°36'1110.9
2016-Feb-05 10:33N 51°16' E 001°48'1111.3
2016-Feb-05 09:34N 51°27' E 001°56'1211.7
2016-Feb-05 08:33N 51°35' E 002°08'1212.3
2016-Feb-05 07:33N 51°45' E 002°21'130 9.0
2016-Feb-04 17:05N 53°40' E 000°42'712.9
2016-Feb-04 16:33N 53°39' E 000°30'1110.9
2016-Feb-04 15:33N 53°33' E 000°15'1212.5
2016-Feb-04 14:33N 53°37' W 000°05'3 2.7
2016-Feb-04 13:31N 53°38' W 000°09'0 0.0
2016-Feb-04 12:31N 53°38' W 000°09'0 0.0
2016-Feb-04 11:33N 53°38' W 000°09'0 0.0
2016-Feb-04 10:33N 53°38' W 000°09'0 0.0
2016-Feb-04 09:33N 53°38' W 000°09'0 0.0
2016-Feb-04 08:32N 53°38' W 000°09'0 0.0
2016-Feb-04 07:32N 53°38' W 000°09'0 0.0
2016-Feb-04 06:31N 53°38' W 000°09'0 0.0
2016-Feb-04 05:31N 53°38' W 000°09'0 0.0
2016-Feb-04 04:33N 53°38' W 000°09'0 0.0
2016-Feb-04 03:33N 53°38' W 000°09'0 0.0
2016-Feb-04 02:33N 53°38' W 000°09'0 0.0
2016-Feb-04 01:32N 53°38' W 000°09'0 0.0
2016-Feb-04 00:32N 53°38' W 000°09'0 0.0
2016-Feb-03 23:31N 53°38' W 000°09'0 0.0
2016-Feb-03 22:31N 53°38' W 000°09'0 0.0
2016-Feb-03 21:33N 53°38' W 000°09'0 0.0
2016-Feb-03 20:33N 53°38' W 000°09'0 0.0
2016-Feb-03 19:33N 53°38' W 000°09'0 0.0
2016-Feb-03 18:32N 53°38' W 000°09'0 0.0
2016-Feb-03 17:32N 53°38' W 000°09'0 0.0
2016-Feb-03 16:31N 53°38' W 000°09'0 0.0
2016-Feb-03 15:31N 53°38' W 000°09'0 0.0
2016-Feb-03 14:33N 53°38' W 000°09'0 0.0
2016-Feb-03 13:33N 53°38' W 000°09'0 0.0
2016-Feb-03 12:33N 53°38' W 000°09'0 0.0
2016-Feb-03 11:32N 53°38' W 000°09'0 0.0
2016-Feb-03 10:32N 53°38' W 000°09'0 0.0
2016-Feb-03 09:31N 53°38' W 000°09'0 0.0
2016-Feb-03 08:31N 53°38' W 000°09'0 0.0
2016-Feb-03 07:33N 53°38' W 000°09'0 0.0
2016-Feb-03 06:33N 53°38' W 000°09'0 0.0
2016-Feb-03 05:32N 53°38' W 000°09'0 0.0
2016-Feb-03 04:32N 53°38' W 000°09'0 0.0
2016-Feb-03 03:32N 53°38' W 000°09'0 0.0
2016-Feb-03 02:31N 53°38' W 000°09'0 0.0
2016-Feb-03 01:31N 53°38' W 000°09'0 0.0
2016-Feb-03 00:33N 53°38' W 000°09'0 0.0
2016-Feb-02 23:33N 53°38' W 000°09'0 0.0
2016-Feb-02 22:32N 53°38' W 000°09'0 0.0
2016-Feb-02 21:32N 53°38' W 000°09'0 0.0
2016-Feb-02 20:32N 53°38' W 000°09'0 0.0
2016-Feb-02 19:31N 53°38' W 000°09'0 0.0
2016-Feb-02 18:31N 53°38' W 000°09'0 0.0
2016-Feb-02 17:33N 53°38' W 000°09'0 0.0
2016-Feb-02 16:33N 53°38' W 000°09'0 0.0
2016-Feb-02 15:32N 53°38' W 000°09'0 0.0
2016-Feb-02 14:32N 53°38' W 000°09'0 0.0
2016-Feb-02 13:32N 53°38' W 000°09'0 0.0
2016-Feb-02 12:28N 53°38' W 000°09'0 0.0
2016-Feb-02 11:31N 53°38' W 000°09'0 0.0
2016-Feb-02 10:33N 53°38' W 000°09'0 0.0
2016-Feb-02 09:33N 53°38' W 000°09'0 0.0
2016-Feb-02 08:32N 53°38' W 000°09'0 0.0
2016-Feb-02 07:32N 53°38' W 000°09'0 0.0
2016-Feb-02 06:32N 53°38' W 000°09'0 0.0
2016-Feb-02 05:31N 53°38' W 000°09'0 0.0
2016-Feb-02 04:31N 53°38' W 000°09'0 0.0
2016-Feb-02 03:33N 53°38' W 000°09'0 0.0
2016-Feb-02 02:30N 53°38' W 000°09'0 0.0
2016-Feb-02 01:32N 53°38' W 000°09'0 0.0
2016-Feb-02 00:32N 53°38' W 000°09'0 0.0
2016-Feb-01 23:33N 53°38' W 000°09'4 4.5
2016-Feb-01 22:33N 53°37' W 000°02'1010.0
2016-Feb-01 21:33N 53°33' E 000°14'9 9.3
2016-Feb-01 20:33N 53°41' E 000°22'0 0.4
2016-Feb-01 19:33N 53°41' E 000°22'5 5.0
2016-Feb-01 18:32N 53°46' E 000°22'1 0.9
2016-Feb-01 17:33N 53°45' E 000°23'0 0.3
2016-Feb-01 16:33N 53°45' E 000°24'0 0.0
2016-Feb-01 15:23N 53°45' E 000°24'0 0.0
2016-Feb-01 14:23N 53°45' E 000°24'0 0.0
2016-Feb-01 13:25N 53°45' E 000°24'0 0.0
2016-Feb-01 12:19N 53°45' E 000°24'0 0.1
2016-Feb-01 11:27N 53°45' E 000°24'0 0.1
2016-Feb-01 09:08N 53°45' E 000°23'0 0.1
2016-Feb-01 07:14N 53°45' E 000°23'0 0.1
2016-Feb-01 06:28N 53°45' E 000°23'0 0.1
2016-Feb-01 05:22N 53°45' E 000°23'0 0.0
2016-Feb-01 04:25N 53°45' E 000°23'0 0.0
2016-Feb-01 03:27N 53°45' E 000°23'0 0.0
2016-Feb-01 02:33N 53°45' E 000°23'0 0.1
2016-Feb-01 01:26N 53°45' E 000°23'0 0.1
2016-Feb-01 00:29N 53°45' E 000°24'0 0.1
2016-Jan-31 23:28N 53°45' E 000°24'0 0.0
2016-Jan-31 18:11N 53°45' E 000°23'0 0.4
2016-Jan-31 17:32N 53°45' E 000°23'0 0.1
2016-Jan-31 16:28N 53°45' E 000°23'0 0.0
2016-Jan-31 15:31N 53°45' E 000°23'0 0.0
2016-Jan-31 14:30N 53°45' E 000°23'0 0.0
2016-Jan-31 13:33N 53°45' E 000°23'0 0.0
2016-Jan-31 12:33N 53°45' E 000°23'0 0.0
2016-Jan-31 11:32N 53°45' E 000°23'0 0.2
2016-Jan-31 10:32N 53°45' E 000°23'0 0.1
2016-Jan-31 09:31N 53°45' E 000°23'  
Track history (hours):
 
Tides and Currents Weather Stations Pressure Air Temp Water Temp Dewpoint Dewpoint Depression Visibility Wind Speed Wind Dir Waves Ship Positions

Tanja Jacob

Last reported at 2016-Feb-10 08:33 UTC. Time now 2016-Feb-11 06:29 UTC.
Position N 36°14' W 008°03'.

Length 227 m; draft 8.4 m.

Type: Ship. MMSI: 636092217.

Date/timePositionNaut miles runAvg speedWind from/ knotsBaromVisibWave heightAir tempDewpointWater temp
2016-Feb-10 08:33N 36°14' W 008°03'1414.5
2016-Feb-10 07:33N 36°18' W 008°21'1414.2
2016-Feb-10 06:33N 36°22' W 008°38'1414.1
2016-Feb-10 05:33N 36°25' W 008°55'1414.4
2016-Feb-10 04:33N 36°29' W 009°12'1613.5
2016-Feb-10 03:21N 36°38' W 009°29'1113.3
2016-Feb-10 02:30N 36°46' W 009°38'1313.3
2016-Feb-10 01:33N 36°59' W 009°42'1414.4
2016-Feb-10 00:33N 37°13' W 009°46'1514.6
2016-Feb-09 23:33N 37°27' W 009°50'1414.3
2016-Feb-09 22:33N 37°41' W 009°54'1913.7
2016-Feb-09 21:11N 37°59' W 009°59'913.3
2016-Feb-09 20:32N 38°07' W 010°02'1514.7
2016-Feb-09 19:32N 38°22' W 010°06'1714.9
2016-Feb-09 18:23N 38°38' W 010°11'1012.2
2016-Feb-09 17:33N 38°48' W 010°12'1413.6
2016-Feb-09 16:33N 39°02' W 010°11'2013.9
2016-Feb-09 15:05N 39°22' W 010°12'815.0
2016-Feb-09 14:32N 39°31' W 010°12'1312.5
2016-Feb-09 13:32N 39°43' W 010°12'1414.1
2016-Feb-09 12:32N 39°57' W 010°12'1413.6
2016-Feb-09 11:32N 40°11' W 010°12'1212.5
2016-Feb-09 10:33N 40°23' W 010°12'1413.0
2016-Feb-09 09:30N 40°37' W 010°12'1212.9
2016-Feb-09 08:33N 40°49' W 010°12'1313.0
2016-Feb-09 07:32N 41°02' W 010°12'1111.1
2016-Feb-09 06:32N 41°13' W 010°12'1212.3
2016-Feb-09 05:32N 41°26' W 010°11'1110.8
2016-Feb-09 04:32N 41°36' W 010°12'1211.7
2016-Feb-09 03:33N 41°48' W 010°12'1211.6
2016-Feb-09 02:33N 41°60' W 010°12'  
2016-Feb-05 19:31N 50°25' W 000°41'1111.6
2016-Feb-05 18:33N 50°28' W 000°24'1211.8
2016-Feb-05 17:33N 50°31' W 000°06'1312.3
2016-Feb-05 16:31N 50°34' E 000°13'3013.0
2016-Feb-05 14:15N 50°47' E 000°55'913.2
2016-Feb-05 13:33N 50°52' E 001°07'1312.9
2016-Feb-05 12:33N 51°01' E 001°22'1211.5
2016-Feb-05 11:33N 51°08' E 001°36'1110.9
2016-Feb-05 10:33N 51°16' E 001°48'1111.3
2016-Feb-05 09:34N 51°27' E 001°56'1211.7
2016-Feb-05 08:33N 51°35' E 002°08'1212.3
2016-Feb-05 07:33N 51°45' E 002°21'130 9.0
2016-Feb-04 17:05N 53°40' E 000°42'712.9
2016-Feb-04 16:33N 53°39' E 000°30'1110.9
2016-Feb-04 15:33N 53°33' E 000°15'1212.5
2016-Feb-04 14:33N 53°37' W 000°05'3 2.7
2016-Feb-04 13:31N 53°38' W 000°09'0 0.0
2016-Feb-04 12:31N 53°38' W 000°09'0 0.0
2016-Feb-04 11:33N 53°38' W 000°09'0 0.0
2016-Feb-04 10:33N 53°38' W 000°09'0 0.0
2016-Feb-04 09:33N 53°38' W 000°09'0 0.0
2016-Feb-04 08:32N 53°38' W 000°09'0 0.0
2016-Feb-04 07:32N 53°38' W 000°09'0 0.0
2016-Feb-04 06:31N 53°38' W 000°09'0 0.0
2016-Feb-04 05:31N 53°38' W 000°09'0 0.0
2016-Feb-04 04:33N 53°38' W 000°09'0 0.0
2016-Feb-04 03:33N 53°38' W 000°09'0 0.0
2016-Feb-04 02:33N 53°38' W 000°09'0 0.0
2016-Feb-04 01:32N 53°38' W 000°09'0 0.0
2016-Feb-04 00:32N 53°38' W 000°09'0 0.0
2016-Feb-03 23:31N 53°38' W 000°09'0 0.0
2016-Feb-03 22:31N 53°38' W 000°09'0 0.0
2016-Feb-03 21:33N 53°38' W 000°09'0 0.0
2016-Feb-03 20:33N 53°38' W 000°09'0 0.0
2016-Feb-03 19:33N 53°38' W 000°09'0 0.0
2016-Feb-03 18:32N 53°38' W 000°09'0 0.0
2016-Feb-03 17:32N 53°38' W 000°09'0 0.0
2016-Feb-03 16:31N 53°38' W 000°09'0 0.0
2016-Feb-03 15:31N 53°38' W 000°09'0 0.0
2016-Feb-03 14:33N 53°38' W 000°09'0 0.0
2016-Feb-03 13:33N 53°38' W 000°09'0 0.0
2016-Feb-03 12:33N 53°38' W 000°09'0 0.0
2016-Feb-03 11:32N 53°38' W 000°09'0 0.0
2016-Feb-03 10:32N 53°38' W 000°09'0 0.0
2016-Feb-03 09:31N 53°38' W 000°09'0 0.0
2016-Feb-03 08:31N 53°38' W 000°09'0 0.0
2016-Feb-03 07:33N 53°38' W 000°09'0 0.0
2016-Feb-03 06:33N 53°38' W 000°09'0 0.0
2016-Feb-03 05:32N 53°38' W 000°09'0 0.0
2016-Feb-03 04:32N 53°38' W 000°09'0 0.0
2016-Feb-03 03:32N 53°38' W 000°09'0 0.0
2016-Feb-03 02:31N 53°38' W 000°09'0 0.0
2016-Feb-03 01:31N 53°38' W 000°09'0 0.0
2016-Feb-03 00:33N 53°38' W 000°09'0 0.0
2016-Feb-02 23:33N 53°38' W 000°09'0 0.0
2016-Feb-02 22:32N 53°38' W 000°09'0 0.0
2016-Feb-02 21:32N 53°38' W 000°09'0 0.0
2016-Feb-02 20:32N 53°38' W 000°09'0 0.0
2016-Feb-02 19:31N 53°38' W 000°09'0 0.0
2016-Feb-02 18:31N 53°38' W 000°09'0 0.0
2016-Feb-02 17:33N 53°38' W 000°09'0 0.0
2016-Feb-02 16:33N 53°38' W 000°09'0 0.0
2016-Feb-02 15:32N 53°38' W 000°09'0 0.0
2016-Feb-02 14:32N 53°38' W 000°09'0 0.0
2016-Feb-02 13:32N 53°38' W 000°09'0 0.0
2016-Feb-02 12:28N 53°38' W 000°09'0 0.0
2016-Feb-02 11:31N 53°38' W 000°09'0 0.0
2016-Feb-02 10:33N 53°38' W 000°09'0 0.0
2016-Feb-02 09:33N 53°38' W 000°09'0 0.0
2016-Feb-02 08:32N 53°38' W 000°09'0 0.0
2016-Feb-02 07:32N 53°38' W 000°09'0 0.0
2016-Feb-02 06:32N 53°38' W 000°09'0 0.0
2016-Feb-02 05:31N 53°38' W 000°09'0 0.0
2016-Feb-02 04:31N 53°38' W 000°09'0 0.0
2016-Feb-02 03:33N 53°38' W 000°09'0 0.0
2016-Feb-02 02:30N 53°38' W 000°09'0 0.0
2016-Feb-02 01:32N 53°38' W 000°09'0 0.0
2016-Feb-02 00:32N 53°38' W 000°09'0 0.0
2016-Feb-01 23:33N 53°38' W 000°09'4 4.5
2016-Feb-01 22:33N 53°37' W 000°02'1010.0
2016-Feb-01 21:33N 53°33' E 000°14'9 9.3
2016-Feb-01 20:33N 53°41' E 000°22'0 0.4
2016-Feb-01 19:33N 53°41' E 000°22'5 5.0
2016-Feb-01 18:32N 53°46' E 000°22'1 0.9
2016-Feb-01 17:33N 53°45' E 000°23'0 0.3
2016-Feb-01 16:33N 53°45' E 000°24'0 0.0
2016-Feb-01 15:23N 53°45' E 000°24'0 0.0
2016-Feb-01 14:23N 53°45' E 000°24'0 0.0
2016-Feb-01 13:25N 53°45' E 000°24'0 0.0
2016-Feb-01 12:19N 53°45' E 000°24'0 0.1
2016-Feb-01 11:27N 53°45' E 000°24'0 0.1
2016-Feb-01 09:08N 53°45' E 000°23'0 0.1
2016-Feb-01 07:14N 53°45' E 000°23'0 0.1
2016-Feb-01 06:28N 53°45' E 000°23'0 0.1
2016-Feb-01 05:22N 53°45' E 000°23'0 0.0
2016-Feb-01 04:25N 53°45' E 000°23'0 0.0
2016-Feb-01 03:27N 53°45' E 000°23'0 0.0
2016-Feb-01 02:33N 53°45' E 000°23'0 0.1
2016-Feb-01 01:26N 53°45' E 000°23'0 0.1
2016-Feb-01 00:29N 53°45' E 000°24'0 0.1
2016-Jan-31 23:28N 53°45' E 000°24'0 0.0
2016-Jan-31 18:11N 53°45' E 000°23'0 0.4
2016-Jan-31 17:32N 53°45' E 000°23'0 0.1
2016-Jan-31 16:28N 53°45' E 000°23'0 0.0
2016-Jan-31 15:31N 53°45' E 000°23'0 0.0
2016-Jan-31 14:30N 53°45' E 000°23'0 0.0
2016-Jan-31 13:33N 53°45' E 000°23'0 0.0
2016-Jan-31 12:33N 53°45' E 000°23'0 0.0
2016-Jan-31 11:32N 53°45' E 000°23'0 0.2
2016-Jan-31 10:32N 53°45' E 000°23'0 0.1
2016-Jan-31 09:31N 53°45' E 000°23'  

Dump ship's entire track history